createdAt,value
2018-12-31T00:02:03.447Z,19.07
2018-12-31T00:04:33.511Z,16.70
2018-12-31T00:07:03.197Z,19.30
2018-12-31T00:09:32.885Z,18.23
2018-12-31T00:12:02.579Z,14.63
2018-12-31T00:14:32.296Z,15.30
2018-12-31T00:17:02.008Z,17.43
2018-12-31T00:19:31.702Z,19.57
2018-12-31T00:22:01.401Z,19.07
2018-12-31T00:24:36.980Z,14.13
2018-12-31T00:27:06.660Z,20.17
2018-12-31T00:29:36.354Z,21.00
2018-12-31T00:32:06.026Z,20.57
2018-12-31T00:34:35.979Z,18.20
2018-12-31T00:37:05.905Z,20.17
2018-12-31T00:39:35.593Z,20.27
2018-12-31T00:42:05.649Z,18.50
2018-12-31T00:44:35.333Z,20.33
2018-12-31T00:47:05.366Z,20.68
2018-12-31T00:49:35.055Z,20.93
2018-12-31T00:52:04.743Z,20.17
2018-12-31T00:54:34.425Z,21.93
2018-12-31T00:57:04.265Z,20.17
2018-12-31T00:59:33.945Z,24.10
2018-12-31T01:02:03.640Z,19.37
2018-12-31T01:04:33.329Z,26.53
2018-12-31T01:07:03.086Z,18.23
2018-12-31T01:09:33.090Z,25.80
2018-12-31T01:12:02.797Z,29.10
2018-12-31T01:14:32.488Z,23.33
2018-12-31T01:17:02.190Z,25.50
2018-12-31T01:19:52.162Z,25.67
2018-12-31T01:22:21.848Z,24.90
2018-12-31T01:24:51.550Z,28.60
2018-12-31T01:27:21.243Z,20.00
2018-12-31T01:29:50.946Z,23.00
2018-12-31T01:32:20.891Z,21.70
2018-12-31T01:34:50.582Z,19.73
2018-12-31T01:37:20.270Z,18.30
2018-12-31T01:39:49.976Z,19.50
2018-12-31T01:42:19.647Z,18.83
2018-12-31T01:44:49.352Z,22.53
2018-12-31T01:47:19.268Z,22.60
2018-12-31T01:49:48.959Z,26.73
2018-12-31T01:52:18.715Z,24.63
2018-12-31T01:54:48.398Z,26.13
2018-12-31T01:57:18.134Z,28.73
2018-12-31T01:59:47.756Z,28.53
2018-12-31T02:02:17.434Z,18.40
2018-12-31T02:04:47.135Z,27.43
2018-12-31T02:07:17.062Z,25.80
2018-12-31T02:09:46.763Z,27.40
2018-12-31T02:12:16.450Z,24.05
2018-12-31T02:14:46.161Z,31.40
2018-12-31T02:17:15.899Z,26.83
2018-12-31T02:19:45.634Z,23.90
2018-12-31T02:22:15.323Z,26.63
2018-12-31T02:24:45.241Z,23.27
2018-12-31T02:27:14.933Z,28.62
2018-12-31T02:29:44.887Z,24.33
2018-12-31T02:32:14.584Z,32.20
2018-12-31T02:34:44.259Z,29.97
2018-12-31T02:37:13.936Z,26.55
2018-12-31T02:39:43.628Z,30.30
2018-12-31T02:42:13.360Z,24.55
2018-12-31T02:44:43.110Z,27.80
2018-12-31T02:47:12.779Z,28.35
2018-12-31T02:49:42.464Z,25.13
2018-12-31T02:52:12.149Z,27.77
2018-12-31T02:54:41.830Z,26.70
2018-12-31T02:57:11.523Z,23.47
2018-12-31T02:59:41.481Z,27.40
2018-12-31T03:02:11.247Z,25.43
2018-12-31T03:04:40.941Z,27.07
2018-12-31T03:07:10.616Z,22.23
2018-12-31T03:09:40.302Z,23.70
2018-12-31T03:12:09.988Z,27.75
2018-12-31T03:14:39.710Z,21.30
2018-12-31T03:17:09.399Z,27.50
2018-12-31T03:19:39.091Z,30.73
2018-12-31T03:22:08.810Z,29.10
2018-12-31T03:24:38.505Z,29.82
2018-12-31T03:27:08.260Z,30.63
2018-12-31T03:29:37.948Z,29.60
2018-12-31T03:32:07.650Z,33.20
2018-12-31T03:34:37.374Z,26.73
2018-12-31T03:37:07.102Z,31.63
2018-12-31T03:39:36.781Z,29.77
2018-12-31T03:42:06.547Z,30.50
2018-12-31T03:44:36.227Z,32.20
2018-12-31T03:47:05.998Z,24.93
2018-12-31T03:49:35.932Z,28.43
2018-12-31T03:52:05.611Z,35.73
2018-12-31T03:54:35.313Z,35.60
2018-12-31T03:57:05.449Z,33.33
2018-12-31T03:59:35.163Z,32.03
2018-12-31T04:02:05.485Z,31.27
2018-12-31T04:04:35.183Z,32.27
2018-12-31T04:09:40.767Z,29.43
2018-12-31T04:12:10.458Z,29.83
2018-12-31T04:14:40.158Z,30.47
2018-12-31T04:17:09.840Z,29.00
2018-12-31T04:19:39.515Z,27.13
2018-12-31T04:22:09.223Z,23.87
2018-12-31T04:24:38.899Z,24.80
2018-12-31T04:27:08.588Z,25.27
2018-12-31T04:29:38.268Z,24.77
2018-12-31T04:32:08.195Z,26.13
2018-12-31T04:34:37.887Z,24.27
2018-12-31T04:37:07.571Z,25.40
2018-12-31T04:39:37.259Z,26.50
2018-12-31T04:42:06.948Z,26.77
2018-12-31T04:44:36.627Z,24.93
2018-12-31T04:47:06.319Z,25.07
2018-12-31T04:49:35.998Z,26.10
2018-12-31T04:52:05.681Z,23.67
2018-12-31T04:54:35.366Z,23.57
2018-12-31T04:57:05.368Z,23.47
2018-12-31T04:59:35.055Z,23.23
2018-12-31T05:02:04.967Z,23.47
2018-12-31T05:04:34.651Z,21.70
2018-12-31T05:07:05.160Z,23.45
2018-12-31T05:09:35.077Z,23.27
2018-12-31T05:12:05.399Z,21.85
2018-12-31T05:14:35.095Z,22.30
2018-12-31T05:17:05.230Z,20.57
2018-12-31T05:19:35.143Z,20.47
2018-12-31T05:22:05.623Z,19.98
2018-12-31T05:24:35.344Z,20.23
2018-12-31T05:27:05.047Z,21.70
2018-12-31T05:29:34.734Z,18.53
2018-12-31T05:32:05.496Z,17.42
2018-12-31T05:34:35.414Z,17.77
2018-12-31T05:37:05.407Z,17.27
2018-12-31T05:39:36.069Z,18.27
2018-12-31T05:42:05.754Z,16.30
2018-12-31T05:47:11.115Z,14.47
2018-12-31T05:49:40.805Z,16.13
2018-12-31T05:52:10.506Z,15.30
2018-12-31T05:54:40.185Z,17.33
2018-12-31T05:57:09.873Z,16.52
2018-12-31T05:59:39.550Z,14.33
2018-12-31T06:02:09.242Z,15.50
2018-12-31T06:04:38.906Z,12.63
2018-12-31T06:07:08.594Z,14.10
2018-12-31T06:09:38.299Z,14.73
2018-12-31T06:12:08.958Z,13.73
2018-12-31T06:14:38.642Z,13.70
2018-12-31T06:17:08.337Z,13.20
2018-12-31T06:19:38.032Z,14.27
2018-12-31T06:22:07.738Z,12.93
2018-12-31T06:24:37.779Z,13.07
2018-12-31T06:27:07.802Z,13.73
2018-12-31T06:29:37.489Z,13.80
2018-12-31T06:32:07.640Z,13.90
2018-12-31T06:34:37.354Z,13.13
2018-12-31T06:37:07.110Z,14.17
2018-12-31T06:39:36.805Z,13.97
2018-12-31T06:42:06.478Z,13.80
2018-12-31T06:44:36.153Z,14.20
2018-12-31T06:47:05.920Z,13.67
2018-12-31T06:49:45.257Z,14.53
2018-12-31T06:52:14.946Z,14.43
2018-12-31T06:54:44.870Z,13.47
2018-12-31T06:57:14.556Z,14.47
2018-12-31T06:59:44.237Z,13.72
2018-12-31T07:02:13.929Z,13.43
2018-12-31T07:04:44.574Z,12.87
2018-12-31T07:07:14.506Z,13.90
2018-12-31T07:09:44.190Z,13.40
2018-12-31T07:12:13.884Z,13.03
2018-12-31T07:14:43.807Z,13.07
2018-12-31T07:17:13.589Z,14.33
2018-12-31T07:19:43.271Z,14.43
2018-12-31T07:22:12.963Z,13.90
2018-12-31T07:24:42.643Z,13.50
2018-12-31T07:27:12.326Z,14.68
2018-12-31T07:29:42.007Z,14.75
2018-12-31T07:32:11.701Z,14.30
2018-12-31T07:34:41.445Z,15.17
2018-12-31T07:37:11.131Z,13.45
2018-12-31T07:39:40.813Z,13.87
2018-12-31T07:42:10.491Z,15.77
2018-12-31T07:44:40.674Z,14.13
2018-12-31T07:47:10.526Z,17.57
2018-12-31T07:49:40.203Z,15.40
2018-12-31T07:52:09.900Z,12.10
2018-12-31T07:54:39.593Z,12.50
2018-12-31T07:57:09.266Z,15.20
2018-12-31T07:59:38.941Z,14.87
2018-12-31T08:02:08.624Z,13.90
2018-12-31T08:04:38.319Z,12.87
2018-12-31T08:07:08.010Z,16.70
2018-12-31T08:09:37.687Z,14.47
2018-12-31T08:12:08.355Z,12.73
2018-12-31T08:14:38.042Z,15.50
2018-12-31T08:17:08.913Z,17.67
2018-12-31T08:19:38.830Z,14.00
2018-12-31T08:22:08.763Z,14.57
2018-12-31T08:24:38.673Z,19.33
2018-12-31T08:29:43.724Z,15.00
2018-12-31T08:32:13.649Z,15.07
2018-12-31T08:34:43.558Z,15.10
2018-12-31T08:37:13.473Z,15.00
2018-12-31T08:39:44.105Z,16.00
2018-12-31T08:42:13.919Z,16.00
2018-12-31T08:44:44.055Z,15.73
2018-12-31T08:47:14.045Z,15.48
2018-12-31T08:49:43.953Z,15.83
2018-12-31T08:52:13.870Z,18.57
2018-12-31T08:54:43.776Z,16.30
2018-12-31T08:57:13.707Z,15.40
2018-12-31T08:59:43.609Z,17.07
2018-12-31T09:02:13.525Z,14.43
2018-12-31T09:04:47.834Z,16.63
2018-12-31T09:07:17.654Z,15.60
2018-12-31T09:09:47.567Z,15.43
2018-12-31T09:12:17.492Z,15.07
2018-12-31T09:14:47.413Z,16.57
2018-12-31T09:17:17.311Z,14.40
2018-12-31T09:19:47.229Z,15.53
2018-12-31T09:22:17.142Z,14.73
2018-12-31T09:24:47.052Z,15.70
2018-12-31T09:27:17.209Z,16.90
2018-12-31T09:29:48.099Z,16.90
2018-12-31T09:32:18.034Z,20.12
2018-12-31T09:34:47.934Z,26.70
2018-12-31T09:37:17.847Z,18.42
2018-12-31T09:39:47.772Z,19.17
2018-12-31T09:42:17.907Z,16.97
2018-12-31T09:44:48.143Z,19.13
2018-12-31T09:47:18.125Z,17.20
2018-12-31T09:49:48.033Z,15.13
2018-12-31T09:52:17.936Z,16.50
2018-12-31T09:54:47.860Z,16.10
2018-12-31T09:57:17.841Z,17.07
2018-12-31T09:59:47.705Z,17.63
2018-12-31T10:02:17.597Z,16.43
2018-12-31T10:04:47.518Z,15.67
2018-12-31T10:07:17.428Z,16.23
2018-12-31T10:09:48.097Z,14.60
2018-12-31T10:12:17.875Z,16.93
2018-12-31T10:14:47.778Z,16.73
2018-12-31T10:17:17.699Z,16.67
2018-12-31T10:19:47.610Z,16.00
2018-12-31T10:22:17.518Z,16.43
2018-12-31T10:24:47.446Z,18.00
2018-12-31T10:27:17.365Z,17.42
2018-12-31T10:29:47.066Z,16.37
2018-12-31T10:32:16.886Z,17.62
2018-12-31T10:34:46.794Z,22.63
2018-12-31T10:37:16.704Z,18.03
2018-12-31T10:39:46.618Z,23.13
2018-12-31T10:42:16.532Z,16.73
2018-12-31T10:44:46.448Z,15.97
2018-12-31T10:47:16.362Z,17.90
2018-12-31T10:49:47.041Z,18.10
2018-12-31T10:52:16.818Z,21.05
2018-12-31T10:54:46.723Z,21.30
2018-12-31T10:57:17.862Z,20.25
2018-12-31T10:59:47.859Z,19.70
2018-12-31T11:02:17.750Z,21.47
2018-12-31T11:04:47.595Z,23.60
2018-12-31T11:07:17.535Z,23.55
2018-12-31T11:09:47.432Z,22.73
2018-12-31T11:12:17.338Z,21.53
2018-12-31T11:14:47.256Z,20.83
2018-12-31T11:17:17.163Z,23.50
2018-12-31T11:19:47.096Z,25.30
2018-12-31T11:22:17.715Z,26.00
2018-12-31T11:24:47.534Z,25.50
2018-12-31T11:27:17.442Z,23.33
2018-12-31T11:29:47.603Z,27.80
2018-12-31T11:32:17.586Z,24.10
2018-12-31T11:34:47.494Z,24.47
2018-12-31T11:37:17.401Z,24.60
2018-12-31T11:39:47.567Z,24.40
2018-12-31T11:42:17.542Z,23.18
2018-12-31T11:44:47.446Z,25.40
2018-12-31T11:47:17.366Z,23.15
2018-12-31T11:49:47.290Z,22.80
2018-12-31T11:52:17.208Z,21.37
2018-12-31T11:54:47.108Z,23.37
2018-12-31T11:57:17.021Z,20.93
2018-12-31T11:59:47.778Z,22.10
2018-12-31T12:02:23.510Z,20.40
2018-12-31T12:04:51.892Z,22.07
2018-12-31T12:07:21.601Z,21.83
2018-12-31T12:09:51.846Z,19.67
2018-12-31T12:12:22.025Z,19.80
2018-12-31T12:14:51.953Z,20.80
2018-12-31T12:17:22.593Z,17.47
2018-12-31T12:19:52.719Z,20.63
2018-12-31T12:22:22.930Z,20.97
2018-12-31T12:24:52.842Z,17.80
2018-12-31T12:27:22.834Z,19.27
2018-12-31T12:29:52.663Z,20.37
2018-12-31T12:32:22.590Z,23.83
2018-12-31T12:34:52.482Z,25.50
2018-12-31T12:37:22.811Z,23.77
2018-12-31T12:39:52.629Z,25.27
2018-12-31T12:42:22.530Z,25.47
2018-12-31T12:44:52.448Z,23.80
2018-12-31T12:47:22.687Z,25.00
2018-12-31T12:49:53.387Z,23.62
2018-12-31T12:52:24.041Z,21.97
2018-12-31T12:54:56.042Z,22.53
2018-12-31T12:57:26.014Z,23.87
2018-12-31T12:59:55.949Z,22.63
2018-12-31T13:02:25.852Z,19.43
2018-12-31T13:05:03.397Z,21.60
2018-12-31T13:07:28.450Z,23.00
2018-12-31T13:09:58.681Z,21.93
2018-12-31T13:12:28.886Z,21.33
2018-12-31T13:14:58.804Z,25.73
2018-12-31T13:17:28.724Z,24.47
2018-12-31T13:19:58.934Z,20.73
2018-12-31T13:22:28.850Z,20.80
2018-12-31T13:24:58.753Z,23.77
2018-12-31T13:27:28.657Z,19.00
2018-12-31T13:29:58.609Z,19.33
2018-12-31T13:32:28.811Z,20.40
2018-12-31T13:34:58.722Z,24.00
2018-12-31T13:37:28.632Z,21.13
2018-12-31T13:39:58.857Z,23.73
2018-12-31T13:42:28.774Z,21.93
2018-12-31T13:44:58.905Z,56.93
2018-12-31T13:47:28.910Z,50.10
2018-12-31T13:49:59.070Z,38.93
2018-12-31T13:52:29.290Z,22.40
2018-12-31T13:54:59.310Z,21.73
2018-12-31T13:57:29.183Z,20.90
2018-12-31T13:59:59.722Z,19.93
2018-12-31T14:02:29.648Z,21.37
2018-12-31T14:04:59.532Z,22.47
2018-12-31T14:07:29.451Z,22.00
2018-12-31T14:09:59.378Z,27.53
2018-12-31T14:12:29.274Z,23.60
2018-12-31T14:14:59.187Z,22.87
2018-12-31T14:17:29.124Z,23.33
2018-12-31T14:19:59.638Z,22.60
2018-12-31T14:22:30.321Z,23.50
2018-12-31T14:25:00.381Z,22.40
2018-12-31T14:27:30.299Z,25.13
2018-12-31T14:30:00.271Z,24.97
2018-12-31T14:32:30.127Z,25.00
2018-12-31T14:35:00.346Z,27.43
2018-12-31T14:37:30.257Z,28.30
2018-12-31T14:40:00.257Z,25.33
2018-12-31T14:42:30.090Z,27.87
2018-12-31T14:45:00.312Z,30.00
2018-12-31T14:47:30.237Z,25.30
2018-12-31T14:50:00.233Z,25.93
2018-12-31T14:52:30.357Z,24.63
2018-12-31T14:55:00.289Z,25.33
2018-12-31T14:57:30.189Z,28.13
2018-12-31T15:00:00.155Z,27.13
2018-12-31T15:02:30.948Z,26.60
2018-12-31T15:05:02.066Z,25.70
2018-12-31T15:07:32.961Z,135.70
2018-12-31T15:10:02.849Z,111.07
2018-12-31T15:12:33.664Z,263.17
2018-12-31T15:15:03.690Z,37.17
2018-12-31T15:17:33.801Z,24.10
2018-12-31T15:20:03.991Z,23.80
2018-12-31T15:22:33.936Z,24.43
2018-12-31T15:25:04.004Z,20.37
2018-12-31T15:27:41.583Z,21.40
2018-12-31T15:30:11.435Z,24.47
2018-12-31T15:32:41.281Z,25.77
2018-12-31T15:35:11.264Z,21.60
2018-12-31T15:37:41.718Z,26.47
2018-12-31T15:40:11.719Z,27.55
2018-12-31T15:42:41.526Z,29.07
2018-12-31T15:45:11.452Z,38.30
2018-12-31T15:47:43.998Z,33.47
2018-12-31T15:50:14.127Z,35.08
2018-12-31T15:52:44.879Z,20.73
2018-12-31T15:55:14.796Z,23.30
2018-12-31T15:57:44.708Z,32.10
2018-12-31T16:00:14.926Z,23.83
2018-12-31T16:02:45.642Z,27.37
2018-12-31T16:05:15.446Z,23.90
2018-12-31T16:07:46.102Z,23.93
2018-12-31T16:10:16.204Z,30.13
2018-12-31T16:12:46.363Z,27.67
2018-12-31T16:15:16.877Z,29.63
2018-12-31T16:17:46.805Z,33.57
2018-12-31T16:20:16.701Z,37.17
2018-12-31T16:22:46.613Z,49.50
2018-12-31T16:25:16.854Z,61.40
2018-12-31T16:27:47.240Z,40.60
2018-12-31T16:30:18.007Z,33.37
2018-12-31T16:32:48.752Z,25.67
2018-12-31T16:35:19.585Z,51.03
2018-12-31T16:37:50.170Z,38.33
2018-12-31T16:40:20.614Z,32.63
2018-12-31T16:42:50.529Z,35.20
2018-12-31T16:45:21.054Z,35.33
2018-12-31T16:47:51.024Z,37.63
2018-12-31T16:50:21.224Z,40.92
2018-12-31T16:52:51.106Z,38.97
2018-12-31T16:55:21.050Z,38.45
2018-12-31T16:57:51.567Z,38.93
2018-12-31T17:00:21.552Z,35.00
2018-12-31T17:02:51.461Z,32.87
2018-12-31T17:05:21.300Z,34.63
2018-12-31T17:07:51.243Z,32.90
2018-12-31T17:10:21.133Z,29.40
2018-12-31T17:12:51.040Z,27.80
2018-12-31T17:15:20.974Z,29.50
2018-12-31T17:17:50.871Z,29.70
2018-12-31T17:20:20.799Z,31.07
2018-12-31T17:22:51.925Z,32.47
2018-12-31T17:25:21.841Z,30.57
2018-12-31T17:27:51.751Z,40.20
2018-12-31T17:30:21.675Z,36.60
2018-12-31T17:32:51.579Z,36.63
2018-12-31T17:35:21.506Z,37.15
2018-12-31T17:37:51.406Z,38.43
2018-12-31T17:40:21.312Z,38.53
2018-12-31T17:42:51.007Z,41.37
2018-12-31T17:45:24.914Z,45.75
2018-12-31T17:47:54.748Z,47.77
2018-12-31T17:50:24.740Z,52.80
2018-12-31T17:52:54.584Z,52.63
2018-12-31T17:55:25.214Z,60.17
2018-12-31T17:57:55.330Z,55.67
2018-12-31T18:00:25.319Z,55.23
2018-12-31T18:02:55.151Z,53.50
2018-12-31T18:05:25.082Z,55.10
2018-12-31T18:07:54.973Z,55.70
2018-12-31T18:10:24.911Z,54.47
2018-12-31T18:12:54.829Z,51.73
2018-12-31T18:15:24.743Z,55.07
2018-12-31T18:17:54.657Z,55.97
2018-12-31T18:20:24.631Z,47.37
2018-12-31T18:22:54.461Z,47.77
2018-12-31T18:25:24.414Z,48.00
2018-12-31T18:27:54.541Z,48.87
2018-12-31T18:30:24.523Z,41.17
2018-12-31T18:32:54.434Z,42.07
2018-12-31T18:35:24.371Z,40.10
2018-12-31T18:37:54.321Z,41.97
2018-12-31T18:40:24.252Z,41.70
2018-12-31T18:42:54.994Z,42.13
2018-12-31T18:45:24.922Z,39.27
2018-12-31T18:47:54.863Z,34.30
2018-12-31T18:50:24.995Z,37.87
2018-12-31T18:52:54.962Z,40.20
2018-12-31T18:55:25.154Z,39.00
2018-12-31T18:57:55.090Z,36.87
2018-12-31T19:00:25.021Z,38.47
2018-12-31T19:02:54.935Z,40.50
2018-12-31T19:05:24.859Z,44.37
2018-12-31T19:07:55.686Z,48.17
2018-12-31T19:10:25.637Z,47.80
2018-12-31T19:12:56.182Z,50.23
2018-12-31T19:15:26.041Z,48.93
2018-12-31T19:17:56.038Z,47.03
2018-12-31T19:20:26.180Z,41.27
2018-12-31T19:22:56.082Z,41.43
2018-12-31T19:25:26.002Z,41.93
2018-12-31T19:27:55.917Z,40.17
2018-12-31T19:30:25.986Z,44.70
2018-12-31T19:32:56.046Z,45.33
2018-12-31T19:35:26.273Z,44.30
2018-12-31T19:37:56.173Z,45.53
2018-12-31T19:40:26.103Z,41.60
2018-12-31T19:42:56.271Z,41.33
2018-12-31T19:45:26.243Z,39.77
2018-12-31T19:47:56.162Z,40.43
2018-12-31T19:50:26.323Z,48.73
2018-12-31T19:52:56.290Z,43.03
2018-12-31T19:55:26.212Z,43.67
2018-12-31T19:57:56.115Z,45.93
2018-12-31T20:00:26.056Z,44.60
2018-12-31T20:02:55.951Z,54.60
2018-12-31T20:05:25.860Z,50.80
2018-12-31T20:07:55.770Z,45.20
2018-12-31T20:10:26.404Z,41.80
2018-12-31T20:12:56.215Z,33.60
2018-12-31T20:15:27.114Z,35.57
2018-12-31T20:17:56.971Z,41.53
2018-12-31T20:20:33.761Z,37.17
2018-12-31T20:23:03.546Z,33.13
2018-12-31T20:25:33.460Z,44.30
2018-12-31T20:28:06.058Z,39.80
2018-12-31T20:30:35.748Z,53.20
2018-12-31T20:33:05.648Z,34.00
2018-12-31T20:35:35.568Z,43.90
2018-12-31T20:38:05.486Z,38.30
2018-12-31T20:40:35.401Z,37.93
2018-12-31T20:43:05.619Z,44.07
2018-12-31T20:45:35.538Z,44.40
2018-12-31T20:48:05.438Z,47.30
2018-12-31T20:50:35.358Z,49.57
2018-12-31T20:53:05.274Z,52.60
2018-12-31T20:55:35.271Z,44.93
2018-12-31T20:58:05.732Z,44.43
2018-12-31T21:00:35.627Z,42.73
2018-12-31T21:03:05.650Z,46.10
2018-12-31T21:05:35.464Z,40.47
2018-12-31T21:08:05.467Z,41.63
2018-12-31T21:10:35.325Z,40.27
2018-12-31T21:13:05.209Z,37.67
2018-12-31T21:18:28.702Z,38.53
2018-12-31T21:20:58.602Z,40.47
2018-12-31T21:23:28.517Z,42.57
2018-12-31T21:25:58.654Z,88.22
2018-12-31T21:28:28.347Z,82.80
2018-12-31T21:30:58.262Z,44.50
2018-12-31T21:33:28.169Z,41.43
2018-12-31T21:35:58.090Z,43.87
2018-12-31T21:38:27.989Z,44.43
2018-12-31T21:40:57.924Z,48.10
2018-12-31T21:43:27.836Z,49.23
2018-12-31T21:45:58.506Z,43.90
2018-12-31T21:48:28.269Z,80.45
2018-12-31T21:50:58.197Z,38.57
2018-12-31T21:53:28.095Z,38.50
2018-12-31T21:55:58.017Z,36.67
2018-12-31T21:58:27.915Z,40.70
2018-12-31T22:00:57.836Z,38.50
2018-12-31T22:03:27.824Z,39.73
2018-12-31T22:05:57.663Z,43.57
2018-12-31T22:08:27.565Z,52.60
2018-12-31T22:10:57.493Z,55.17
2018-12-31T22:13:27.408Z,53.13
2018-12-31T22:15:57.325Z,48.13
2018-12-31T22:18:27.468Z,51.53
2018-12-31T22:20:57.458Z,48.43
2018-12-31T22:23:27.360Z,49.93
2018-12-31T22:25:57.290Z,40.57
2018-12-31T22:28:27.204Z,40.63
2018-12-31T22:30:57.422Z,42.80
2018-12-31T22:33:27.334Z,51.07
2018-12-31T22:35:57.257Z,49.03
2018-12-31T22:38:27.185Z,47.63
2018-12-31T22:40:57.075Z,44.50
2018-12-31T22:43:27.290Z,44.67
2018-12-31T22:45:57.229Z,43.33
2018-12-31T22:48:27.135Z,43.10
2018-12-31T22:50:57.815Z,43.50
2018-12-31T22:53:27.577Z,43.37
2018-12-31T22:55:57.486Z,43.13
2018-12-31T22:58:27.408Z,36.60
2018-12-31T23:00:57.394Z,33.70
2018-12-31T23:03:27.530Z,33.50
2018-12-31T23:05:57.466Z,78.70
2018-12-31T23:08:27.371Z,105.93
2018-12-31T23:10:57.391Z,158.87
2018-12-31T23:13:29.977Z,137.73
2018-12-31T23:15:59.889Z,140.53
2018-12-31T23:18:29.784Z,220.90
2018-12-31T23:20:59.941Z,296.67
2018-12-31T23:23:29.924Z,152.40
2018-12-31T23:25:59.831Z,165.83
2018-12-31T23:28:30.062Z,189.33
2018-12-31T23:31:01.489Z,281.07
2018-12-31T23:33:31.460Z,169.68
2018-12-31T23:36:01.326Z,148.70
2018-12-31T23:38:31.352Z,105.00
2018-12-31T23:41:01.168Z,103.57
2018-12-31T23:43:31.980Z,75.17
2018-12-31T23:46:01.897Z,56.90
2018-12-31T23:48:31.805Z,63.77
2018-12-31T23:51:01.743Z,73.20
2018-12-31T23:53:31.973Z,90.70
2018-12-31T23:56:01.866Z,143.73
2018-12-31T23:58:32.698Z,87.70
